ヤクーツク の空港の天気 - METARとTAF

ヤクーツク空港 ( UEEE / YKS ) - ロシア ヤクーツク
飛行場実況気象(Metar)
観測時間04/26 20:00 YAKT (04/26 11:00 UTC)
風向・風速北西 1m/s
視程10km以上
天気現象
なし
気温1℃
湿度44%
気圧1011hPa
METARUEEE 261100Z 31001MPS CAVOK 01/M10 Q1011 R23L/09//60 NOSIG RMK QFE750
過去の天気等 Google飛行場航空写真 Wunderground天気予報

過去48時間のMETAR

飛行場予報(TAF)
発表時間: 4/26 17:00 YAKT (4/26 08:00 UTC)
予報対象時間: 26日18時 YAKT ~ 28日0時 YAKT
風向・風速北北西 3m/s
視程10km以上
なし
TAF UEEE 260800Z 2609/2715 34003MPS CAVOK